sensor_id;sensor_type;location;lat;lon;timestamp;noise_LAeq;noise_LA_min;noise_LA_max;noise_LA01;noise_LA95
83034;Laerm;72848;52.216;5.616;2024-01-07T00:02:10;33.57;30.04;44.09;;
83034;Laerm;72848;52.216;5.616;2024-01-07T00:04:39;31.50;28.93;39.22;;
83034;Laerm;72848;52.216;5.616;2024-01-07T00:07:08;32.52;29.18;46.97;;
83034;Laerm;72848;52.216;5.616;2024-01-07T00:09:37;32.57;30.08;39.31;;
83034;Laerm;72848;52.216;5.616;2024-01-07T00:12:06;32.89;30.00;39.22;;
83034;Laerm;72848;52.216;5.616;2024-01-07T00:14:34;33.59;28.96;53.33;;
83034;Laerm;72848;52.216;5.616;2024-01-07T00:17:05;31.41;28.78;39.20;;
83034;Laerm;72848;52.216;5.616;2024-01-07T00:19:34;33.20;29.76;47.31;;
83034;Laerm;72848;52.216;5.616;2024-01-07T00:22:02;31.87;29.12;37.76;;
83034;Laerm;72848;52.216;5.616;2024-01-07T00:24:30;33.02;29.32;50.92;;
83034;Laerm;72848;52.216;5.616;2024-01-07T00:26:59;32.42;29.34;37.26;;
83034;Laerm;72848;52.216;5.616;2024-01-07T00:29:27;31.83;29.66;37.89;;
83034;Laerm;72848;52.216;5.616;2024-01-07T00:31:56;33.31;29.75;40.26;;
83034;Laerm;72848;52.216;5.616;2024-01-07T00:34:26;32.37;29.99;38.27;;
83034;Laerm;72848;52.216;5.616;2024-01-07T00:36:55;33.17;30.20;46.78;;
83034;Laerm;72848;52.216;5.616;2024-01-07T00:39:23;32.95;29.97;48.88;;
83034;Laerm;72848;52.216;5.616;2024-01-07T00:41:52;33.09;30.10;38.80;;
83034;Laerm;72848;52.216;5.616;2024-01-07T00:44:20;33.03;29.69;38.98;;
83034;Laerm;72848;52.216;5.616;2024-01-07T00:46:48;31.68;29.26;38.17;;
83034;Laerm;72848;52.216;5.616;2024-01-07T00:49:17;33.86;29.49;49.51;;
83034;Laerm;72848;52.216;5.616;2024-01-07T00:51:48;32.65;29.56;38.51;;
83034;Laerm;72848;52.216;5.616;2024-01-07T00:54:16;31.22;29.22;38.66;;
83034;Laerm;72848;52.216;5.616;2024-01-07T00:56:45;33.06;29.40;49.01;;
83034;Laerm;72848;52.216;5.616;2024-01-07T00:59:13;31.39;29.43;39.47;;
83034;Laerm;72848;52.216;5.616;2024-01-07T01:01:42;32.57;29.59;41.51;;
83034;Laerm;72848;52.216;5.616;2024-01-07T01:04:10;33.45;29.39;43.68;;
83034;Laerm;72848;52.216;5.616;2024-01-07T01:06:38;30.97;28.86;43.51;;
83034;Laerm;72848;52.216;5.616;2024-01-07T01:09:09;34.36;28.80;51.62;;
83034;Laerm;72848;52.216;5.616;2024-01-07T01:11:38;32.07;29.27;50.79;;
83034;Laerm;72848;52.216;5.616;2024-01-07T01:14:06;31.74;28.83;46.51;;
83034;Laerm;72848;52.216;5.616;2024-01-07T01:16:34;32.99;29.30;38.38;;
83034;Laerm;72848;52.216;5.616;2024-01-07T01:19:03;30.90;28.81;37.72;;
83034;Laerm;72848;52.216;5.616;2024-01-07T01:21:31;32.52;29.14;37.99;;
83034;Laerm;72848;52.216;5.616;2024-01-07T01:23:59;33.95;29.74;41.89;;
83034;Laerm;72848;52.216;5.616;2024-01-07T01:26:31;32.61;29.73;38.63;;
83034;Laerm;72848;52.216;5.616;2024-01-07T01:28:59;35.04;30.02;43.95;;
83034;Laerm;72848;52.216;5.616;2024-01-07T01:31:27;33.15;29.38;39.38;;
83034;Laerm;72848;52.216;5.616;2024-01-07T01:33:56;34.68;30.26;44.08;;
83034;Laerm;72848;52.216;5.616;2024-01-07T01:36:24;32.22;29.13;38.91;;
83034;Laerm;72848;52.216;5.616;2024-01-07T01:38:52;31.22;29.21;37.60;;
83034;Laerm;72848;52.216;5.616;2024-01-07T01:41:21;32.24;28.98;43.74;;
83034;Laerm;72848;52.216;5.616;2024-01-07T01:43:55;32.33;29.01;38.68;;
83034;Laerm;72848;52.216;5.616;2024-01-07T01:46:24;31.56;28.95;38.55;;
83034;Laerm;72848;52.216;5.616;2024-01-07T01:48:53;35.49;29.72;48.33;;
83034;Laerm;72848;52.216;5.616;2024-01-07T01:51:21;37.64;29.05;53.18;;
83034;Laerm;72848;52.216;5.616;2024-01-07T01:53:50;31.30;28.92;38.11;;
83034;Laerm;72848;52.216;5.616;2024-01-07T01:56:19;32.99;29.17;43.14;;
83034;Laerm;72848;52.216;5.616;2024-01-07T01:58:48;32.84;29.64;37.84;;
83034;Laerm;72848;52.216;5.616;2024-01-07T02:01:19;32.23;28.94;37.94;;
83034;Laerm;72848;52.216;5.616;2024-01-07T02:03:47;33.23;29.21;43.83;;
83034;Laerm;72848;52.216;5.616;2024-01-07T02:06:15;33.04;29.19;39.78;;
83034;Laerm;72848;52.216;5.616;2024-01-07T02:08:44;31.49;29.16;37.79;;
83034;Laerm;72848;52.216;5.616;2024-01-07T02:11:16;32.77;29.04;39.15;;
83034;Laerm;72848;52.216;5.616;2024-01-07T02:13:45;31.75;29.27;39.68;;
83034;Laerm;72848;52.216;5.616;2024-01-07T02:16:13;33.77;29.30;53.86;;
83034;Laerm;72848;52.216;5.616;2024-01-07T02:18:45;32.82;29.46;42.30;;
83034;Laerm;72848;52.216;5.616;2024-01-07T02:21:13;33.47;29.91;44.40;;
83034;Laerm;72848;52.216;5.616;2024-01-07T02:23:42;33.41;29.13;41.58;;
83034;Laerm;72848;52.216;5.616;2024-01-07T02:26:13;34.27;28.92;44.49;;
83034;Laerm;72848;52.216;5.616;2024-01-07T02:28:41;31.74;28.96;43.91;;
83034;Laerm;72848;52.216;5.616;2024-01-07T02:31:10;32.33;29.53;38.28;;
83034;Laerm;72848;52.216;5.616;2024-01-07T02:33:38;31.76;29.40;37.71;;
83034;Laerm;72848;52.216;5.616;2024-01-07T02:36:07;33.69;29.23;50.91;;
83034;Laerm;72848;52.216;5.616;2024-01-07T02:38:35;35.04;29.86;43.67;;
83034;Laerm;72848;52.216;5.616;2024-01-07T02:41:04;32.08;28.92;38.58;;
83034;Laerm;72848;52.216;5.616;2024-01-07T02:43:35;33.83;29.25;48.33;;
83034;Laerm;72848;52.216;5.616;2024-01-07T02:46:03;35.08;29.72;46.55;;
83034;Laerm;72848;52.216;5.616;2024-01-07T02:48:32;35.35;29.51;45.46;;
83034;Laerm;72848;52.216;5.616;2024-01-07T02:51:00;33.31;29.27;38.63;;
83034;Laerm;72848;52.216;5.616;2024-01-07T02:53:28;32.99;29.35;38.97;;
83034;Laerm;72848;52.216;5.616;2024-01-07T02:55:57;34.65;29.16;49.86;;
83034;Laerm;72848;52.216;5.616;2024-01-07T02:58:25;31.80;29.54;37.86;;
83034;Laerm;72848;52.216;5.616;2024-01-07T03:00:56;36.44;30.79;44.19;;
83034;Laerm;72848;52.216;5.616;2024-01-07T03:03:25;35.72;31.26;48.11;;
83034;Laerm;72848;52.216;5.616;2024-01-07T03:05:53;36.57;30.93;47.34;;
83034;Laerm;72848;52.216;5.616;2024-01-07T03:08:21;35.77;30.52;42.15;;
83034;Laerm;72848;52.216;5.616;2024-01-07T03:10:50;38.77;32.38;52.64;;
83034;Laerm;72848;52.216;5.616;2024-01-07T03:13:18;42.87;34.21;52.00;;
83034;Laerm;72848;52.216;5.616;2024-01-07T03:15:47;35.57;30.43;49.70;;
83034;Laerm;72848;52.216;5.616;2024-01-07T03:18:18;40.36;33.07;51.63;;
83034;Laerm;72848;52.216;5.616;2024-01-07T03:20:46;36.55;30.48;43.34;;
83034;Laerm;72848;52.216;5.616;2024-01-07T03:23:14;36.95;30.42;45.88;;
83034;Laerm;72848;52.216;5.616;2024-01-07T03:25:43;39.61;33.80;49.85;;
83034;Laerm;72848;52.216;5.616;2024-01-07T03:28:11;34.13;30.60;46.81;;
83034;Laerm;72848;52.216;5.616;2024-01-07T03:30:39;39.18;31.19;46.74;;
83034;Laerm;72848;52.216;5.616;2024-01-07T03:33:08;37.13;30.59;44.16;;
83034;Laerm;72848;52.216;5.616;2024-01-07T03:35:39;35.11;29.44;40.96;;
83034;Laerm;72848;52.216;5.616;2024-01-07T03:38:08;32.52;29.34;37.73;;
83034;Laerm;72848;52.216;5.616;2024-01-07T03:40:36;34.59;29.37;50.71;;
83034;Laerm;72848;52.216;5.616;2024-01-07T03:43:04;33.73;28.79;40.38;;
83034;Laerm;72848;52.216;5.616;2024-01-07T03:45:33;33.06;29.11;43.11;;
83034;Laerm;72848;52.216;5.616;2024-01-07T03:48:01;31.57;29.13;42.24;;
83034;Laerm;72848;52.216;5.616;2024-01-07T03:50:29;36.91;29.55;47.52;;
83034;Laerm;72848;52.216;5.616;2024-01-07T03:53:01;34.03;29.67;41.51;;
83034;Laerm;72848;52.216;5.616;2024-01-07T03:55:29;31.78;29.33;41.18;;
83034;Laerm;72848;52.216;5.616;2024-01-07T03:57:58;33.95;29.78;46.44;;
83034;Laerm;72848;52.216;5.616;2024-01-07T04:00:26;31.95;29.33;37.79;;
83034;Laerm;72848;52.216;5.616;2024-01-07T04:02:55;31.83;28.88;46.26;;
83034;Laerm;72848;52.216;5.616;2024-01-07T04:05:23;31.94;28.98;47.26;;
83034;Laerm;72848;52.216;5.616;2024-01-07T04:07:52;37.65;29.31;58.60;;
83034;Laerm;72848;52.216;5.616;2024-01-07T04:10:23;32.07;28.89;38.30;;
83034;Laerm;72848;52.216;5.616;2024-01-07T04:12:51;31.29;29.04;37.77;;
83034;Laerm;72848;52.216;5.616;2024-01-07T04:15:19;34.91;29.45;46.94;;
83034;Laerm;72848;52.216;5.616;2024-01-07T04:17:48;31.27;29.14;38.22;;
83034;Laerm;72848;52.216;5.616;2024-01-07T04:20:16;31.57;29.48;41.85;;
83034;Laerm;72848;52.216;5.616;2024-01-07T04:22:45;35.20;29.52;47.91;;
83034;Laerm;72848;52.216;5.616;2024-01-07T04:25:13;36.48;30.70;44.52;;
83034;Laerm;72848;52.216;5.616;2024-01-07T04:27:47;33.66;29.48;45.48;;
83034;Laerm;72848;52.216;5.616;2024-01-07T04:30:15;31.39;29.28;40.22;;
83034;Laerm;72848;52.216;5.616;2024-01-07T04:32:43;32.58;29.06;40.11;;
83034;Laerm;72848;52.216;5.616;2024-01-07T04:35:12;33.86;29.55;43.07;;
83034;Laerm;72848;52.216;5.616;2024-01-07T04:37:41;33.64;28.97;40.68;;
83034;Laerm;72848;52.216;5.616;2024-01-07T04:40:10;33.33;29.58;39.08;;
83034;Laerm;72848;52.216;5.616;2024-01-07T04:42:39;36.00;29.75;43.61;;
83034;Laerm;72848;52.216;5.616;2024-01-07T04:45:12;34.24;29.29;44.41;;
83034;Laerm;72848;52.216;5.616;2024-01-07T04:47:40;31.86;28.91;43.60;;
83034;Laerm;72848;52.216;5.616;2024-01-07T04:50:09;39.90;29.37;56.74;;
83034;Laerm;72848;52.216;5.616;2024-01-07T04:52:37;36.58;29.08;50.14;;
83034;Laerm;72848;52.216;5.616;2024-01-07T04:55:06;30.95;28.94;40.34;;
83034;Laerm;72848;52.216;5.616;2024-01-07T04:57:35;33.40;29.13;38.71;;
83034;Laerm;72848;52.216;5.616;2024-01-07T05:00:05;31.11;28.79;36.67;;
83034;Laerm;72848;52.216;5.616;2024-01-07T05:02:38;33.33;29.44;43.93;;
83034;Laerm;72848;52.216;5.616;2024-01-07T05:05:07;41.32;29.15;56.91;;
83034;Laerm;72848;52.216;5.616;2024-01-07T05:07:37;37.50;30.20;50.44;;
83034;Laerm;72848;52.216;5.616;2024-01-07T05:10:06;30.57;28.87;36.47;;
83034;Laerm;72848;52.216;5.616;2024-01-07T05:12:34;31.25;28.79;43.67;;
83034;Laerm;72848;52.216;5.616;2024-01-07T05:15:03;31.84;28.89;38.07;;
83034;Laerm;72848;52.216;5.616;2024-01-07T05:17:31;38.34;29.07;49.69;;
83034;Laerm;72848;52.216;5.616;2024-01-07T05:20:04;37.25;29.70;54.47;;
83034;Laerm;72848;52.216;5.616;2024-01-07T05:22:33;37.28;30.00;52.01;;
83034;Laerm;72848;52.216;5.616;2024-01-07T05:25:01;32.30;28.81;37.86;;
83034;Laerm;72848;52.216;5.616;2024-01-07T05:27:30;32.50;29.15;42.43;;
83034;Laerm;72848;52.216;5.616;2024-01-07T05:29:58;33.46;29.16;45.51;;
83034;Laerm;72848;52.216;5.616;2024-01-07T05:32:26;31.03;28.82;36.71;;
83034;Laerm;72848;52.216;5.616;2024-01-07T05:34:55;32.16;28.77;40.50;;
83034;Laerm;72848;52.216;5.616;2024-01-07T05:37:26;30.95;28.70;46.44;;
83034;Laerm;72848;52.216;5.616;2024-01-07T05:39:55;43.38;29.98;59.74;;
83034;Laerm;72848;52.216;5.616;2024-01-07T05:42:23;32.83;29.15;43.82;;
83034;Laerm;72848;52.216;5.616;2024-01-07T05:44:51;32.94;29.79;40.53;;
83034;Laerm;72848;52.216;5.616;2024-01-07T05:47:20;33.40;29.60;39.01;;
83034;Laerm;72848;52.216;5.616;2024-01-07T05:49:48;32.56;29.09;41.25;;
83034;Laerm;72848;52.216;5.616;2024-01-07T05:52:16;32.91;29.72;37.84;;
83034;Laerm;72848;52.216;5.616;2024-01-07T05:54:48;33.61;29.27;44.97;;
83034;Laerm;72848;52.216;5.616;2024-01-07T05:57:16;32.93;29.41;37.44;;
83034;Laerm;72848;52.216;5.616;2024-01-07T05:59:45;35.55;30.21;44.24;;
83034;Laerm;72848;52.216;5.616;2024-01-07T06:02:13;41.17;33.05;52.28;;
83034;Laerm;72848;52.216;5.616;2024-01-07T06:04:42;35.65;30.29;46.80;;
83034;Laerm;72848;52.216;5.616;2024-01-07T06:07:10;34.98;29.99;45.47;;
83034;Laerm;72848;52.216;5.616;2024-01-07T06:09:39;35.19;30.89;50.14;;
83034;Laerm;72848;52.216;5.616;2024-01-07T06:12:10;33.43;30.72;38.63;;
83034;Laerm;72848;52.216;5.616;2024-01-07T06:14:40;35.44;30.82;43.11;;
83034;Laerm;72848;52.216;5.616;2024-01-07T06:17:08;32.03;29.79;38.50;;
83034;Laerm;72848;52.216;5.616;2024-01-07T06:19:37;34.31;30.44;41.40;;
83034;Laerm;72848;52.216;5.616;2024-01-07T06:22:05;34.70;29.30;45.15;;
83034;Laerm;72848;52.216;5.616;2024-01-07T06:24:33;34.55;30.46;39.67;;
83034;Laerm;72848;52.216;5.616;2024-01-07T06:27:02;33.21;30.19;46.20;;
83034;Laerm;72848;52.216;5.616;2024-01-07T06:29:33;34.66;29.92;43.47;;
83034;Laerm;72848;52.216;5.616;2024-01-07T06:32:01;36.06;30.66;47.74;;
83034;Laerm;72848;52.216;5.616;2024-01-07T06:34:30;35.33;30.22;43.00;;
83034;Laerm;72848;52.216;5.616;2024-01-07T06:36:58;35.87;30.13;47.50;;
83034;Laerm;72848;52.216;5.616;2024-01-07T06:39:27;34.89;31.99;39.15;;
83034;Laerm;72848;52.216;5.616;2024-01-07T06:41:55;37.35;32.45;45.90;;
83034;Laerm;72848;52.216;5.616;2024-01-07T06:44:23;37.90;31.35;47.70;;
83034;Laerm;72848;52.216;5.616;2024-01-07T06:46:55;34.85;31.46;38.93;;
83034;Laerm;72848;52.216;5.616;2024-01-07T06:49:23;33.54;30.10;42.08;;
83034;Laerm;72848;52.216;5.616;2024-01-07T06:51:51;34.69;29.85;59.12;;
83034;Laerm;72848;52.216;5.616;2024-01-07T06:54:20;34.45;30.63;38.85;;
83034;Laerm;72848;52.216;5.616;2024-01-07T06:56:49;32.83;29.54;43.17;;
83034;Laerm;72848;52.216;5.616;2024-01-07T06:59:17;35.62;31.04;42.59;;
83034;Laerm;72848;52.216;5.616;2024-01-07T07:01:46;39.20;31.26;51.79;;
83034;Laerm;72848;52.216;5.616;2024-01-07T07:04:19;37.83;31.16;51.26;;
83034;Laerm;72848;52.216;5.616;2024-01-07T07:06:47;39.15;30.47;55.43;;
83034;Laerm;72848;52.216;5.616;2024-01-07T07:09:15;36.69;31.61;50.63;;
83034;Laerm;72848;52.216;5.616;2024-01-07T07:11:44;45.53;31.26;63.75;;
83034;Laerm;72848;52.216;5.616;2024-01-07T07:14:12;43.84;31.25;59.74;;
83034;Laerm;72848;52.216;5.616;2024-01-07T07:16:40;44.04;32.03;58.37;;
83034;Laerm;72848;52.216;5.616;2024-01-07T07:19:09;36.74;32.59;46.68;;
83034;Laerm;72848;52.216;5.616;2024-01-07T07:21:40;35.17;31.33;42.78;;
83034;Laerm;72848;52.216;5.616;2024-01-07T07:24:08;37.92;31.23;55.78;;
83034;Laerm;72848;52.216;5.616;2024-01-07T07:26:37;41.35;33.38;50.11;;
83034;Laerm;72848;52.216;5.616;2024-01-07T07:29:05;37.95;32.46;45.51;;
83034;Laerm;72848;52.216;5.616;2024-01-07T07:31:33;38.87;33.63;45.27;;
83034;Laerm;72848;52.216;5.616;2024-01-07T07:34:02;41.49;33.76;57.95;;
83034;Laerm;72848;52.216;5.616;2024-01-07T07:36:52;43.38;32.31;60.83;;
83034;Laerm;72848;52.216;5.616;2024-01-07T07:39:21;38.55;31.01;60.74;;
83034;Laerm;72848;52.216;5.616;2024-01-07T07:41:49;38.64;31.64;49.14;;
83034;Laerm;72848;52.216;5.616;2024-01-07T07:44:17;34.36;30.79;45.14;;
83034;Laerm;72848;52.216;5.616;2024-01-07T07:46:46;39.90;31.90;55.50;;
83034;Laerm;72848;52.216;5.616;2024-01-07T07:49:14;37.89;31.76;58.47;;
83034;Laerm;72848;52.216;5.616;2024-01-07T07:51:43;38.47;31.62;50.19;;
83034;Laerm;72848;52.216;5.616;2024-01-07T07:54:14;38.20;32.39;51.66;;
83034;Laerm;72848;52.216;5.616;2024-01-07T07:56:43;40.23;32.79;59.98;;
83034;Laerm;72848;52.216;5.616;2024-01-07T07:59:11;37.86;30.99;46.00;;
83034;Laerm;72848;52.216;5.616;2024-01-07T08:01:39;35.86;31.49;46.40;;
83034;Laerm;72848;52.216;5.616;2024-01-07T08:04:08;36.96;32.29;48.38;;
83034;Laerm;72848;52.216;5.616;2024-01-07T08:06:36;39.60;33.67;57.28;;
83034;Laerm;72848;52.216;5.616;2024-01-07T08:09:04;38.62;33.12;56.19;;
83034;Laerm;72848;52.216;5.616;2024-01-07T08:11:36;50.01;35.42;73.41;;
83034;Laerm;72848;52.216;5.616;2024-01-07T08:14:04;38.38;34.51;44.33;;
83034;Laerm;72848;52.216;5.616;2024-01-07T08:16:33;39.75;34.87;46.15;;
83034;Laerm;72848;52.216;5.616;2024-01-07T08:19:01;41.94;36.88;48.86;;
83034;Laerm;72848;52.216;5.616;2024-01-07T08:21:29;39.65;34.26;47.22;;
83034;Laerm;72848;52.216;5.616;2024-01-07T08:23:58;41.13;33.83;54.31;;
83034;Laerm;72848;52.216;5.616;2024-01-07T08:26:26;45.34;33.75;68.54;;
83034;Laerm;72848;52.216;5.616;2024-01-07T08:28:58;38.49;32.02;58.14;;
83034;Laerm;72848;52.216;5.616;2024-01-07T08:31:26;45.96;31.75;68.72;;
83034;Laerm;72848;52.216;5.616;2024-01-07T08:33:55;39.67;32.62;57.86;;
83034;Laerm;72848;52.216;5.616;2024-01-07T08:36:23;38.20;33.42;47.13;;
83034;Laerm;72848;52.216;5.616;2024-01-07T08:38:52;45.27;32.38;62.77;;
83034;Laerm;72848;52.216;5.616;2024-01-07T08:41:20;39.29;33.57;50.44;;
83034;Laerm;72848;52.216;5.616;2024-01-07T08:43:48;38.76;33.04;53.43;;
83034;Laerm;72848;52.216;5.616;2024-01-07T08:46:20;39.51;32.84;47.72;;
83034;Laerm;72848;52.216;5.616;2024-01-07T08:48:48;37.66;33.63;51.18;;
83034;Laerm;72848;52.216;5.616;2024-01-07T08:51:16;35.74;32.73;45.60;;
83034;Laerm;72848;52.216;5.616;2024-01-07T08:53:45;39.85;33.92;58.31;;
83034;Laerm;72848;52.216;5.616;2024-01-07T08:56:14;40.95;35.32;46.06;;
83034;Laerm;72848;52.216;5.616;2024-01-07T08:58:42;40.73;36.39;50.71;;
83034;Laerm;72848;52.216;5.616;2024-01-07T09:01:10;41.11;34.98;49.79;;
83034;Laerm;72848;52.216;5.616;2024-01-07T09:03:43;40.92;36.48;48.98;;
83034;Laerm;72848;52.216;5.616;2024-01-07T09:06:11;41.69;36.71;55.32;;
83034;Laerm;72848;52.216;5.616;2024-01-07T09:08:40;46.46;36.82;56.33;;
83034;Laerm;72848;52.216;5.616;2024-01-07T09:11:08;43.62;38.01;52.40;;
83034;Laerm;72848;52.216;5.616;2024-01-07T09:13:36;41.86;34.88;52.39;;
83034;Laerm;72848;52.216;5.616;2024-01-07T09:16:05;40.47;35.12;47.44;;
83034;Laerm;72848;52.216;5.616;2024-01-07T09:18:33;41.48;35.13;61.85;;
83034;Laerm;72848;52.216;5.616;2024-01-07T09:21:05;42.55;35.63;56.65;;
83034;Laerm;72848;52.216;5.616;2024-01-07T09:23:34;41.66;36.08;55.14;;
83034;Laerm;72848;52.216;5.616;2024-01-07T09:26:02;44.42;35.21;53.14;;
83034;Laerm;72848;52.216;5.616;2024-01-07T09:28:31;39.52;34.17;52.05;;
83034;Laerm;72848;52.216;5.616;2024-01-07T09:30:59;43.81;34.28;63.00;;
83034;Laerm;72848;52.216;5.616;2024-01-07T09:33:28;45.12;34.65;66.73;;
83034;Laerm;72848;52.216;5.616;2024-01-07T09:35:56;42.56;36.62;51.97;;
83034;Laerm;72848;52.216;5.616;2024-01-07T09:38:27;41.92;35.56;52.42;;
83034;Laerm;72848;52.216;5.616;2024-01-07T09:40:56;42.40;32.88;64.98;;
83034;Laerm;72848;52.216;5.616;2024-01-07T09:43:24;42.48;33.63;55.58;;
83034;Laerm;72848;52.216;5.616;2024-01-07T09:45:53;42.30;34.85;57.62;;
83034;Laerm;72848;52.216;5.616;2024-01-07T09:48:22;42.95;32.71;65.67;;
83034;Laerm;72848;52.216;5.616;2024-01-07T09:50:50;41.58;32.52;59.23;;
83034;Laerm;72848;52.216;5.616;2024-01-07T09:53:20;37.68;33.35;48.71;;
83034;Laerm;72848;52.216;5.616;2024-01-07T09:55:56;41.82;34.64;50.75;;
83034;Laerm;72848;52.216;5.616;2024-01-07T09:58:25;39.45;35.66;46.28;;
83034;Laerm;72848;52.216;5.616;2024-01-07T10:00:53;40.33;36.14;48.91;;
83034;Laerm;72848;52.216;5.616;2024-01-07T10:03:22;40.32;34.81;54.25;;
83034;Laerm;72848;52.216;5.616;2024-01-07T10:05:51;40.46;35.56;51.02;;
83034;Laerm;72848;52.216;5.616;2024-01-07T10:08:20;43.89;36.91;50.77;;
83034;Laerm;72848;52.216;5.616;2024-01-07T10:10:48;41.35;36.36;50.98;;
83034;Laerm;72848;52.216;5.616;2024-01-07T10:13:20;45.41;35.02;56.96;;
83034;Laerm;72848;52.216;5.616;2024-01-07T10:15:48;42.77;35.07;59.34;;
83034;Laerm;72848;52.216;5.616;2024-01-07T10:18:18;45.05;34.20;61.74;;
83034;Laerm;72848;52.216;5.616;2024-01-07T10:20:46;45.57;37.04;61.00;;
83034;Laerm;72848;52.216;5.616;2024-01-07T10:23:18;44.93;34.82;69.23;;
83034;Laerm;72848;52.216;5.616;2024-01-07T10:25:46;45.53;36.42;59.88;;
83034;Laerm;72848;52.216;5.616;2024-01-07T10:28:15;43.39;39.56;48.29;;
83034;Laerm;72848;52.216;5.616;2024-01-07T10:30:50;45.21;35.67;62.54;;
83034;Laerm;72848;52.216;5.616;2024-01-07T10:33:18;40.38;34.45;47.55;;
83034;Laerm;72848;52.216;5.616;2024-01-07T10:35:48;41.69;34.18;49.38;;
83034;Laerm;72848;52.216;5.616;2024-01-07T10:38:19;45.57;37.42;52.21;;
83034;Laerm;72848;52.216;5.616;2024-01-07T10:40:48;42.71;36.42;52.66;;
83034;Laerm;72848;52.216;5.616;2024-01-07T10:43:18;44.45;37.96;55.71;;
83034;Laerm;72848;52.216;5.616;2024-01-07T10:45:50;46.91;35.51;54.11;;
83034;Laerm;72848;52.216;5.616;2024-01-07T10:48:19;39.34;34.73;45.85;;
83034;Laerm;72848;52.216;5.616;2024-01-07T10:50:48;42.16;36.60;49.49;;
83034;Laerm;72848;52.216;5.616;2024-01-07T10:53:20;44.12;38.21;58.95;;
83034;Laerm;72848;52.216;5.616;2024-01-07T10:55:50;42.90;36.39;55.43;;
83034;Laerm;72848;52.216;5.616;2024-01-07T10:58:20;43.93;35.62;54.05;;
83034;Laerm;72848;52.216;5.616;2024-01-07T11:00:52;42.71;34.13;53.62;;
83034;Laerm;72848;52.216;5.616;2024-01-07T11:03:24;44.16;36.22;65.06;;
83034;Laerm;72848;52.216;5.616;2024-01-07T11:05:56;41.21;35.94;49.46;;
83034;Laerm;72848;52.216;5.616;2024-01-07T11:08:28;41.45;33.80;58.43;;
83034;Laerm;72848;52.216;5.616;2024-01-07T11:11:02;43.82;34.95;57.47;;
83034;Laerm;72848;52.216;5.616;2024-01-07T11:13:32;40.38;35.44;56.20;;
83034;Laerm;72848;52.216;5.616;2024-01-07T11:16:04;42.61;34.98;50.97;;
83034;Laerm;72848;52.216;5.616;2024-01-07T11:18:34;41.11;35.14;51.73;;
83034;Laerm;72848;52.216;5.616;2024-01-07T11:21:03;41.56;33.13;65.28;;
83034;Laerm;72848;52.216;5.616;2024-01-07T11:23:31;41.72;35.20;54.68;;
83034;Laerm;72848;52.216;5.616;2024-01-07T11:26:00;39.23;34.30;51.41;;
83034;Laerm;72848;52.216;5.616;2024-01-07T11:31:14;55.16;36.52;74.86;;
83034;Laerm;72848;52.216;5.616;2024-01-07T11:33:43;60.88;39.53;78.70;;
83034;Laerm;72848;52.216;5.616;2024-01-07T11:36:12;68.93;37.89;94.76;;
83034;Laerm;72848;52.216;5.616;2024-01-07T11:38:44;53.20;39.25;70.06;;
83034;Laerm;72848;52.216;5.616;2024-01-07T11:41:12;50.03;34.31;66.67;;
83034;Laerm;72848;52.216;5.616;2024-01-07T11:43:54;43.65;35.80;62.59;;
83034;Laerm;72848;52.216;5.616;2024-01-07T11:46:27;45.67;37.35;55.04;;
83034;Laerm;72848;52.216;5.616;2024-01-07T11:48:56;48.47;38.17;67.35;;
83034;Laerm;72848;52.216;5.616;2024-01-07T11:51:25;45.76;40.14;58.56;;
83034;Laerm;72848;52.216;5.616;2024-01-07T11:53:53;49.35;38.76;62.13;;
83034;Laerm;72848;52.216;5.616;2024-01-07T11:56:22;48.36;37.65;61.24;;
83034;Laerm;72848;52.216;5.616;2024-01-07T11:58:50;42.24;35.46;52.85;;
83034;Laerm;72848;52.216;5.616;2024-01-07T12:01:19;48.37;36.19;57.92;;
83034;Laerm;72848;52.216;5.616;2024-01-07T12:03:50;50.86;41.96;58.62;;
83034;Laerm;72848;52.216;5.616;2024-01-07T12:06:20;48.45;40.16;56.05;;
83034;Laerm;72848;52.216;5.616;2024-01-07T12:08:48;47.96;41.05;53.85;;
83034;Laerm;72848;52.216;5.616;2024-01-07T12:11:17;48.68;39.66;54.76;;
83034;Laerm;72848;52.216;5.616;2024-01-07T12:13:46;47.52;41.84;52.93;;
83034;Laerm;72848;52.216;5.616;2024-01-07T12:16:15;42.37;37.18;49.72;;
83034;Laerm;72848;52.216;5.616;2024-01-07T12:18:43;41.79;36.75;52.95;;
83034;Laerm;72848;52.216;5.616;2024-01-07T12:21:18;40.98;36.19;47.17;;
83034;Laerm;72848;52.216;5.616;2024-01-07T12:23:47;48.82;36.62;61.05;;
83034;Laerm;72848;52.216;5.616;2024-01-07T12:26:16;51.01;42.86;56.51;;
83034;Laerm;72848;52.216;5.616;2024-01-07T12:28:51;48.13;41.62;54.66;;
83034;Laerm;72848;52.216;5.616;2024-01-07T12:31:20;46.65;38.89;55.38;;
83034;Laerm;72848;52.216;5.616;2024-01-07T12:33:49;43.36;38.52;61.80;;
83034;Laerm;72848;52.216;5.616;2024-01-07T12:36:22;42.37;37.50;48.80;;
83034;Laerm;72848;52.216;5.616;2024-01-07T12:38:51;46.74;40.02;58.06;;
83034;Laerm;72848;52.216;5.616;2024-01-07T12:41:20;44.74;38.27;50.10;;
83034;Laerm;72848;52.216;5.616;2024-01-07T12:43:49;52.40;41.00;62.68;;
83034;Laerm;72848;52.216;5.616;2024-01-07T12:46:17;45.33;39.69;54.43;;
83034;Laerm;72848;52.216;5.616;2024-01-07T12:48:46;45.40;37.14;59.48;;
83034;Laerm;72848;52.216;5.616;2024-01-07T12:51:14;46.76;34.73;63.84;;
83034;Laerm;72848;52.216;5.616;2024-01-07T12:53:45;37.79;33.80;48.11;;
83034;Laerm;72848;52.216;5.616;2024-01-07T12:56:14;38.41;34.37;47.58;;
83034;Laerm;72848;52.216;5.616;2024-01-07T12:58:42;40.10;35.59;51.69;;
83034;Laerm;72848;52.216;5.616;2024-01-07T13:01:11;39.16;33.71;53.57;;
83034;Laerm;72848;52.216;5.616;2024-01-07T13:03:39;44.61;38.20;49.59;;
83034;Laerm;72848;52.216;5.616;2024-01-07T13:06:08;47.20;37.85;59.50;;
83034;Laerm;72848;52.216;5.616;2024-01-07T13:08:36;46.44;39.89;54.00;;
83034;Laerm;72848;52.216;5.616;2024-01-07T13:11:08;48.38;41.26;55.53;;
83034;Laerm;72848;52.216;5.616;2024-01-07T13:13:36;47.83;43.16;57.14;;
83034;Laerm;72848;52.216;5.616;2024-01-07T13:16:05;45.25;39.88;56.81;;
83034;Laerm;72848;52.216;5.616;2024-01-07T13:18:33;42.81;37.29;49.10;;
83034;Laerm;72848;52.216;5.616;2024-01-07T13:21:03;43.45;37.73;54.45;;
83034;Laerm;72848;52.216;5.616;2024-01-07T13:23:31;46.29;39.55;54.54;;
83034;Laerm;72848;52.216;5.616;2024-01-07T13:26:00;46.00;38.24;53.22;;
83034;Laerm;72848;52.216;5.616;2024-01-07T13:28:33;44.90;38.63;51.81;;
83034;Laerm;72848;52.216;5.616;2024-01-07T13:31:01;41.22;36.04;49.85;;
83034;Laerm;72848;52.216;5.616;2024-01-07T13:33:30;44.08;34.85;51.18;;
83034;Laerm;72848;52.216;5.616;2024-01-07T13:35:58;45.30;38.16;51.67;;
83034;Laerm;72848;52.216;5.616;2024-01-07T13:38:26;46.58;38.81;54.07;;
83034;Laerm;72848;52.216;5.616;2024-01-07T13:40:55;42.76;36.34;48.58;;
83034;Laerm;72848;52.216;5.616;2024-01-07T13:43:23;45.11;37.01;51.76;;
83034;Laerm;72848;52.216;5.616;2024-01-07T13:45:56;41.75;37.00;47.22;;
83034;Laerm;72848;52.216;5.616;2024-01-07T13:48:24;43.47;36.76;51.03;;
83034;Laerm;72848;52.216;5.616;2024-01-07T13:50:53;45.92;36.63;53.60;;
83034;Laerm;72848;52.216;5.616;2024-01-07T13:53:21;38.65;34.60;45.98;;
83034;Laerm;72848;52.216;5.616;2024-01-07T13:55:50;45.81;38.13;54.12;;
83034;Laerm;72848;52.216;5.616;2024-01-07T13:58:18;47.89;40.69;62.86;;